sensor_id;sensor_type;location;lat;lon;timestamp;pressure;altitude;pressure_sealevel;temperature;humidity
20368;BME280;10343;52.402;9.796;2023-03-04T00:01:29;101660.50;;;10.49;52.41
20368;BME280;10343;52.402;9.796;2023-03-04T00:03:58;101662.38;;;10.28;52.84
20368;BME280;10343;52.402;9.796;2023-03-04T00:06:26;101673.97;;;10.10;52.43
20368;BME280;10343;52.402;9.796;2023-03-04T00:08:53;101666.97;;;10.03;52.79
20368;BME280;10343;52.402;9.796;2023-03-04T00:11:22;101667.63;;;10.42;52.15
20368;BME280;10343;52.402;9.796;2023-03-04T00:13:50;101665.44;;;10.97;50.87
20368;BME280;10343;52.402;9.796;2023-03-04T00:16:17;101668.28;;;10.74;51.08
20368;BME280;10343;52.402;9.796;2023-03-04T00:18:45;101669.25;;;10.62;51.94
20368;BME280;10343;52.402;9.796;2023-03-04T00:21:15;101673.84;;;10.43;51.60
20368;BME280;10343;52.402;9.796;2023-03-04T00:23:43;101673.09;;;10.13;52.25
20368;BME280;10343;52.402;9.796;2023-03-04T00:26:11;101665.69;;;10.64;51.65
20368;BME280;10343;52.402;9.796;2023-03-04T00:28:41;101671.22;;;10.36;51.98
20368;BME280;10343;52.402;9.796;2023-03-04T00:31:09;101664.78;;;10.73;51.26
20368;BME280;10343;52.402;9.796;2023-03-04T00:33:37;101661.50;;;10.39;52.30
20368;BME280;10343;52.402;9.796;2023-03-04T00:36:06;101660.41;;;10.64;51.51
20368;BME280;10343;52.402;9.796;2023-03-04T00:38:36;101663.75;;;10.85;51.75
20368;BME280;10343;52.402;9.796;2023-03-04T00:41:04;101660.38;;;10.70;51.42
20368;BME280;10343;52.402;9.796;2023-03-04T00:43:32;101656.69;;;10.84;51.21
20368;BME280;10343;52.402;9.796;2023-03-04T00:46:00;101655.69;;;10.97;51.31
20368;BME280;10343;52.402;9.796;2023-03-04T00:48:28;101661.78;;;9.74;53.61
20368;BME280;10343;52.402;9.796;2023-03-04T00:50:57;101655.19;;;10.55;52.03
20368;BME280;10343;52.402;9.796;2023-03-04T00:53:25;101651.56;;;10.65;51.65
20368;BME280;10343;52.402;9.796;2023-03-04T00:55:54;101649.16;;;11.32;50.33
20368;BME280;10343;52.402;9.796;2023-03-04T00:58:22;101652.22;;;10.89;51.74
20368;BME280;10343;52.402;9.796;2023-03-04T01:00:50;101659.22;;;9.52;54.52
20368;BME280;10343;52.402;9.796;2023-03-04T01:03:18;101656.19;;;10.39;52.59
20368;BME280;10343;52.402;9.796;2023-03-04T01:05:46;101644.38;;;10.77;52.37
20368;BME280;10343;52.402;9.796;2023-03-04T01:08:15;101637.41;;;10.66;51.93
20368;BME280;10343;52.402;9.796;2023-03-04T01:10:43;101634.47;;;10.97;51.05
20368;BME280;10343;52.402;9.796;2023-03-04T01:13:13;101630.81;;;11.11;50.60
20368;BME280;10343;52.402;9.796;2023-03-04T01:15:42;101632.22;;;10.51;52.08
20368;BME280;10343;52.402;9.796;2023-03-04T01:18:10;101638.22;;;10.75;51.60
20368;BME280;10343;52.402;9.796;2023-03-04T01:20:40;101634.88;;;10.49;52.23
20368;BME280;10343;52.402;9.796;2023-03-04T01:23:08;101630.97;;;10.92;50.90
20368;BME280;10343;52.402;9.796;2023-03-04T01:25:35;101627.03;;;10.39;52.71
20368;BME280;10343;52.402;9.796;2023-03-04T01:28:03;101628.00;;;10.22;52.50
20368;BME280;10343;52.402;9.796;2023-03-04T01:30:32;101617.78;;;10.86;51.65
20368;BME280;10343;52.402;9.796;2023-03-04T01:33:00;101621.72;;;10.35;52.51
20368;BME280;10343;52.402;9.796;2023-03-04T01:35:28;101608.94;;;10.87;51.52
20368;BME280;10343;52.402;9.796;2023-03-04T01:37:56;101612.94;;;11.25;51.27
20368;BME280;10343;52.402;9.796;2023-03-04T01:40:24;101602.84;;;10.74;51.60
20368;BME280;10343;52.402;9.796;2023-03-04T01:42:53;101601.91;;;10.80;52.00
20368;BME280;10343;52.402;9.796;2023-03-04T01:45:21;101612.34;;;10.98;51.78
20368;BME280;10343;52.402;9.796;2023-03-04T01:47:51;101600.75;;;11.07;51.49
20368;BME280;10343;52.402;9.796;2023-03-04T01:50:22;101587.53;;;11.02;51.89
20368;BME280;10343;52.402;9.796;2023-03-04T01:52:53;101588.69;;;11.56;50.90
20368;BME280;10343;52.402;9.796;2023-03-04T01:55:22;101576.84;;;11.09;51.80
20368;BME280;10343;52.402;9.796;2023-03-04T01:57:50;101570.25;;;10.61;52.69
20368;BME280;10343;52.402;9.796;2023-03-04T02:00:22;101575.25;;;10.95;51.86
20368;BME280;10343;52.402;9.796;2023-03-04T02:02:56;101564.41;;;11.14;51.36
20368;BME280;10343;52.402;9.796;2023-03-04T02:05:24;101565.09;;;10.46;53.19
20368;BME280;10343;52.402;9.796;2023-03-04T02:07:54;101561.88;;;11.03;52.67
20368;BME280;10343;52.402;9.796;2023-03-04T02:10:23;101555.66;;;11.76;50.34
20368;BME280;10343;52.402;9.796;2023-03-04T02:12:52;101568.03;;;11.08;52.48
20368;BME280;10343;52.402;9.796;2023-03-04T02:15:20;101552.03;;;11.13;52.08
20368;BME280;10343;52.402;9.796;2023-03-04T02:17:49;101550.28;;;11.12;51.58
20368;BME280;10343;52.402;9.796;2023-03-04T02:20:27;101553.97;;;10.98;52.36
20368;BME280;10343;52.402;9.796;2023-03-04T02:23:03;101550.69;;;10.75;53.19
20368;BME280;10343;52.402;9.796;2023-03-04T02:25:38;101545.34;;;10.78;53.27
20368;BME280;10343;52.402;9.796;2023-03-04T02:28:09;101539.13;;;10.82;53.14
20368;BME280;10343;52.402;9.796;2023-03-04T02:30:38;101545.34;;;10.79;53.20
20368;BME280;10343;52.402;9.796;2023-03-04T02:33:06;101543.94;;;10.38;54.67
20368;BME280;10343;52.402;9.796;2023-03-04T02:35:37;101543.94;;;10.43;54.00
20368;BME280;10343;52.402;9.796;2023-03-04T02:38:05;101541.31;;;10.36;55.04
20368;BME280;10343;52.402;9.796;2023-03-04T02:40:33;101536.38;;;10.91;53.21
20368;BME280;10343;52.402;9.796;2023-03-04T02:43:01;101534.41;;;10.12;55.18
20368;BME280;10343;52.402;9.796;2023-03-04T02:45:34;101532.53;;;11.15;53.19
20368;BME280;10343;52.402;9.796;2023-03-04T02:48:04;101533.31;;;10.44;54.80
20368;BME280;10343;52.402;9.796;2023-03-04T02:50:36;101532.78;;;10.95;53.61
20368;BME280;10343;52.402;9.796;2023-03-04T02:53:05;101532.78;;;10.97;53.47
20368;BME280;10343;52.402;9.796;2023-03-04T02:55:34;101532.19;;;10.67;54.65
20368;BME280;10343;52.402;9.796;2023-03-04T02:58:02;101530.84;;;11.10;53.45
20368;BME280;10343;52.402;9.796;2023-03-04T03:00:32;101531.88;;;9.95;57.04
20368;BME280;10343;52.402;9.796;2023-03-04T03:03:00;101525.94;;;10.73;55.13
20368;BME280;10343;52.402;9.796;2023-03-04T03:05:30;101539.16;;;10.76;54.28
20368;BME280;10343;52.402;9.796;2023-03-04T03:07:58;101538.38;;;10.67;54.25
20368;BME280;10343;52.402;9.796;2023-03-04T03:10:27;101541.47;;;11.10;53.30
20368;BME280;10343;52.402;9.796;2023-03-04T03:12:56;101536.09;;;11.16;53.27
20368;BME280;10343;52.402;9.796;2023-03-04T03:15:24;101533.78;;;11.56;52.51
20368;BME280;10343;52.402;9.796;2023-03-04T03:17:55;101532.63;;;11.11;53.70
20368;BME280;10343;52.402;9.796;2023-03-04T03:20:23;101529.59;;;11.40;52.71
20368;BME280;10343;52.402;9.796;2023-03-04T03:22:51;101529.94;;;11.12;54.01
20368;BME280;10343;52.402;9.796;2023-03-04T03:25:19;101531.66;;;11.16;53.61
20368;BME280;10343;52.402;9.796;2023-03-04T03:27:47;101524.19;;;10.73;54.43
20368;BME280;10343;52.402;9.796;2023-03-04T03:30:17;101524.00;;;10.90;54.61
20368;BME280;10343;52.402;9.796;2023-03-04T03:32:45;101517.81;;;11.58;53.07
20368;BME280;10343;52.402;9.796;2023-03-04T03:35:14;101514.13;;;11.03;53.42
20368;BME280;10343;52.402;9.796;2023-03-04T03:37:42;101521.31;;;10.93;54.20
20368;BME280;10343;52.402;9.796;2023-03-04T03:40:11;101510.38;;;10.40;55.72
20368;BME280;10343;52.402;9.796;2023-03-04T03:42:39;101513.69;;;10.62;55.44
20368;BME280;10343;52.402;9.796;2023-03-04T03:45:07;101514.59;;;10.60;56.37
20368;BME280;10343;52.402;9.796;2023-03-04T03:47:35;101511.78;;;10.74;54.86
20368;BME280;10343;52.402;9.796;2023-03-04T03:50:04;101513.31;;;10.96;54.07
20368;BME280;10343;52.402;9.796;2023-03-04T03:52:33;101513.28;;;10.99;54.92
20368;BME280;10343;52.402;9.796;2023-03-04T03:55:01;101512.47;;;10.93;54.80
20368;BME280;10343;52.402;9.796;2023-03-04T03:57:29;101504.09;;;11.28;53.38
20368;BME280;10343;52.402;9.796;2023-03-04T03:59:57;101512.44;;;10.94;54.60
20368;BME280;10343;52.402;9.796;2023-03-04T04:02:25;101509.25;;;11.37;53.83
20368;BME280;10343;52.402;9.796;2023-03-04T04:04:53;101504.50;;;10.94;55.24
20368;BME280;10343;52.402;9.796;2023-03-04T04:07:21;101502.94;;;10.75;55.38
20368;BME280;10343;52.402;9.796;2023-03-04T04:09:50;101498.16;;;11.08;54.72
20368;BME280;10343;52.402;9.796;2023-03-04T04:12:18;101505.03;;;11.21;53.90
20368;BME280;10343;52.402;9.796;2023-03-04T04:14:46;101495.63;;;11.65;52.77
20368;BME280;10343;52.402;9.796;2023-03-04T04:17:14;101493.53;;;11.22;53.82
20368;BME280;10343;52.402;9.796;2023-03-04T04:19:42;101496.91;;;11.36;53.85
20368;BME280;10343;52.402;9.796;2023-03-04T04:22:14;101496.97;;;11.30;53.81
20368;BME280;10343;52.402;9.796;2023-03-04T04:24:43;101503.44;;;11.09;54.81
20368;BME280;10343;52.402;9.796;2023-03-04T04:27:12;101495.97;;;10.64;57.48
20368;BME280;10343;52.402;9.796;2023-03-04T04:29:40;101498.16;;;11.04;57.43
20368;BME280;10343;52.402;9.796;2023-03-04T04:32:08;101495.38;;;10.38;59.92
20368;BME280;10343;52.402;9.796;2023-03-04T04:34:38;101497.47;;;10.90;58.73
20368;BME280;10343;52.402;9.796;2023-03-04T04:37:07;101494.88;;;10.85;58.84
20368;BME280;10343;52.402;9.796;2023-03-04T04:39:35;101489.88;;;10.54;61.05
20368;BME280;10343;52.402;9.796;2023-03-04T04:42:03;101499.50;;;10.66;61.14
20368;BME280;10343;52.402;9.796;2023-03-04T04:44:32;101488.00;;;10.66;60.78
20368;BME280;10343;52.402;9.796;2023-03-04T04:47:00;101492.31;;;10.78;60.70
20368;BME280;10343;52.402;9.796;2023-03-04T04:49:28;101485.44;;;10.58;61.52
20368;BME280;10343;52.402;9.796;2023-03-04T04:51:56;101480.34;;;10.33;61.80
20368;BME280;10343;52.402;9.796;2023-03-04T04:54:25;101480.50;;;10.18;62.75
20368;BME280;10343;52.402;9.796;2023-03-04T04:56:53;101476.00;;;11.09;60.10
20368;BME280;10343;52.402;9.796;2023-03-04T04:59:21;101475.06;;;11.16;59.84
20368;BME280;10343;52.402;9.796;2023-03-04T05:01:50;101469.75;;;10.36;60.61
20368;BME280;10343;52.402;9.796;2023-03-04T05:04:18;101475.53;;;10.74;60.95
20368;BME280;10343;52.402;9.796;2023-03-04T05:06:46;101466.31;;;11.04;59.78
20368;BME280;10343;52.402;9.796;2023-03-04T05:09:14;101465.69;;;10.85;59.68
20368;BME280;10343;52.402;9.796;2023-03-04T05:11:42;101472.81;;;10.82;59.94
20368;BME280;10343;52.402;9.796;2023-03-04T05:14:10;101467.75;;;10.57;60.82
20368;BME280;10343;52.402;9.796;2023-03-04T05:16:38;101459.75;;;11.36;59.30
20368;BME280;10343;52.402;9.796;2023-03-04T05:19:07;101463.75;;;10.98;59.44
20368;BME280;10343;52.402;9.796;2023-03-04T05:21:35;101454.31;;;11.43;58.33
20368;BME280;10343;52.402;9.796;2023-03-04T05:24:03;101459.91;;;11.24;58.96
20368;BME280;10343;52.402;9.796;2023-03-04T05:26:31;101458.50;;;10.92;59.53
20368;BME280;10343;52.402;9.796;2023-03-04T05:28:58;101453.41;;;10.77;60.08
20368;BME280;10343;52.402;9.796;2023-03-04T05:31:26;101445.63;;;10.61;59.68
20368;BME280;10343;52.402;9.796;2023-03-04T05:33:54;101460.06;;;10.29;61.24
20368;BME280;10343;52.402;9.796;2023-03-04T05:36:23;101457.81;;;10.78;59.98
20368;BME280;10343;52.402;9.796;2023-03-04T05:38:51;101458.66;;;10.80;60.11
20368;BME280;10343;52.402;9.796;2023-03-04T05:41:19;101458.88;;;10.61;61.32
20368;BME280;10343;52.402;9.796;2023-03-04T05:43:48;101462.56;;;10.48;61.84
20368;BME280;10343;52.402;9.796;2023-03-04T05:46:18;101450.34;;;10.30;62.23
20368;BME280;10343;52.402;9.796;2023-03-04T05:48:51;101459.41;;;10.01;63.85
20368;BME280;10343;52.402;9.796;2023-03-04T05:51:20;101460.06;;;10.31;62.34
20368;BME280;10343;52.402;9.796;2023-03-04T05:53:49;101466.13;;;10.44;62.05
20368;BME280;10343;52.402;9.796;2023-03-04T05:56:18;101456.78;;;10.91;60.30
20368;BME280;10343;52.402;9.796;2023-03-04T05:58:46;101461.78;;;10.38;62.36
20368;BME280;10343;52.402;9.796;2023-03-04T06:01:15;101472.25;;;11.28;59.53
20368;BME280;10343;52.402;9.796;2023-03-04T06:03:43;101468.09;;;10.20;62.07
20368;BME280;10343;52.402;9.796;2023-03-04T06:06:14;101466.63;;;10.81;61.05
20368;BME280;10343;52.402;9.796;2023-03-04T06:08:42;101460.75;;;10.53;61.68
20368;BME280;10343;52.402;9.796;2023-03-04T06:11:11;101455.19;;;10.76;60.90
20368;BME280;10343;52.402;9.796;2023-03-04T06:13:40;101460.69;;;10.56;60.92
20368;BME280;10343;52.402;9.796;2023-03-04T06:16:08;101464.44;;;10.36;62.05
20368;BME280;10343;52.402;9.796;2023-03-04T06:18:36;101462.34;;;10.69;62.02
20368;BME280;10343;52.402;9.796;2023-03-04T06:21:04;101459.34;;;10.12;63.44
20368;BME280;10343;52.402;9.796;2023-03-04T06:23:32;101463.16;;;10.75;61.87
20368;BME280;10343;52.402;9.796;2023-03-04T06:26:00;101460.91;;;10.38;62.94
20368;BME280;10343;52.402;9.796;2023-03-04T06:28:29;101462.47;;;10.57;64.05
20368;BME280;10343;52.402;9.796;2023-03-04T06:30:57;101456.94;;;10.76;62.72
20368;BME280;10343;52.402;9.796;2023-03-04T06:33:25;101462.56;;;10.48;63.42
20368;BME280;10343;52.402;9.796;2023-03-04T06:35:53;101467.75;;;10.59;63.35
20368;BME280;10343;52.402;9.796;2023-03-04T06:38:21;101457.75;;;9.92;64.95
20368;BME280;10343;52.402;9.796;2023-03-04T06:40:50;101464.66;;;10.97;61.30
20368;BME280;10343;52.402;9.796;2023-03-04T06:43:18;101468.47;;;10.71;61.84
20368;BME280;10343;52.402;9.796;2023-03-04T06:45:47;101466.09;;;10.48;62.64
20368;BME280;10343;52.402;9.796;2023-03-04T06:48:15;101467.34;;;10.94;61.28
20368;BME280;10343;52.402;9.796;2023-03-04T06:50:43;101463.44;;;10.48;62.58
20368;BME280;10343;52.402;9.796;2023-03-04T06:53:12;101460.22;;;10.99;60.84
20368;BME280;10343;52.402;9.796;2023-03-04T06:55:40;101460.63;;;10.64;62.06
20368;BME280;10343;52.402;9.796;2023-03-04T06:58:08;101461.44;;;9.73;66.31
20368;BME280;10343;52.402;9.796;2023-03-04T07:00:36;101461.19;;;10.91;64.10
20368;BME280;10343;52.402;9.796;2023-03-04T07:03:06;101458.66;;;10.80;63.74
20368;BME280;10343;52.402;9.796;2023-03-04T07:05:34;101458.13;;;11.25;61.71
20368;BME280;10343;52.402;9.796;2023-03-04T07:08:02;101461.94;;;11.00;60.86
20368;BME280;10343;52.402;9.796;2023-03-04T07:10:30;101462.56;;;10.46;65.16
20368;BME280;10343;52.402;9.796;2023-03-04T07:12:58;101453.09;;;11.01;62.84
20368;BME280;10343;52.402;9.796;2023-03-04T07:15:26;101456.97;;;10.73;63.10
20368;BME280;10343;52.402;9.796;2023-03-04T07:17:55;101467.72;;;10.60;63.87
20368;BME280;10343;52.402;9.796;2023-03-04T07:20:25;101469.34;;;10.74;64.37
20368;BME280;10343;52.402;9.796;2023-03-04T07:22:57;101470.97;;;10.87;63.75
20368;BME280;10343;52.402;9.796;2023-03-04T07:25:25;101466.25;;;10.34;65.80
20368;BME280;10343;52.402;9.796;2023-03-04T07:27:53;101474.59;;;10.78;66.01
20368;BME280;10343;52.402;9.796;2023-03-04T07:30:20;101462.72;;;11.09;64.93
20368;BME280;10343;52.402;9.796;2023-03-04T07:32:48;101476.09;;;11.02;65.04
20368;BME280;10343;52.402;9.796;2023-03-04T07:35:17;101475.44;;;10.83;66.24
20368;BME280;10343;52.402;9.796;2023-03-04T07:37:46;101469.44;;;10.66;68.06
20368;BME280;10343;52.402;9.796;2023-03-04T07:40:14;101473.34;;;11.12;65.54
20368;BME280;10343;52.402;9.796;2023-03-04T07:42:42;101470.53;;;11.24;64.65
20368;BME280;10343;52.402;9.796;2023-03-04T07:45:14;101472.56;;;11.02;64.83
20368;BME280;10343;52.402;9.796;2023-03-04T07:47:42;101475.91;;;11.18;64.79
20368;BME280;10343;52.402;9.796;2023-03-04T07:50:11;101467.31;;;10.97;65.34
20368;BME280;10343;52.402;9.796;2023-03-04T07:52:41;101475.34;;;9.99;67.38
20368;BME280;10343;52.402;9.796;2023-03-04T07:55:13;101469.38;;;10.72;66.78
20368;BME280;10343;52.402;9.796;2023-03-04T07:57:42;101473.78;;;11.42;64.79
20368;BME280;10343;52.402;9.796;2023-03-04T08:00:13;101470.09;;;10.86;67.24
20368;BME280;10343;52.402;9.796;2023-03-04T08:02:42;101463.16;;;10.75;68.77
20368;BME280;10343;52.402;9.796;2023-03-04T08:05:10;101465.16;;;11.27;65.69
20368;BME280;10343;52.402;9.796;2023-03-04T08:07:38;101465.97;;;11.31;66.67
20368;BME280;10343;52.402;9.796;2023-03-04T08:10:06;101463.00;;;11.54;66.16
20368;BME280;10343;52.402;9.796;2023-03-04T08:12:36;101465.47;;;11.02;68.88
20368;BME280;10343;52.402;9.796;2023-03-04T08:15:05;101464.53;;;11.70;66.29
20368;BME280;10343;52.402;9.796;2023-03-04T08:17:33;101459.47;;;10.86;69.85
20368;BME280;10343;52.402;9.796;2023-03-04T08:20:03;101461.22;;;11.56;67.82
20368;BME280;10343;52.402;9.796;2023-03-04T08:22:31;101464.44;;;11.13;68.33
20368;BME280;10343;52.402;9.796;2023-03-04T08:24:59;101470.41;;;11.30;69.75
20368;BME280;10343;52.402;9.796;2023-03-04T08:27:36;101467.25;;;11.03;70.23
20368;BME280;10343;52.402;9.796;2023-03-04T08:30:05;101459.16;;;10.33;76.74
20368;BME280;10343;52.402;9.796;2023-03-04T08:32:33;101462.69;;;10.35;76.23
20368;BME280;10343;52.402;9.796;2023-03-04T08:35:01;101449.31;;;11.21;73.89
20368;BME280;10343;52.402;9.796;2023-03-04T08:37:29;101449.09;;;9.68;78.42
20368;BME280;10343;52.402;9.796;2023-03-04T08:39:57;101458.38;;;11.04;74.34
20368;BME280;10343;52.402;9.796;2023-03-04T08:42:25;101460.66;;;10.62;76.71
20368;BME280;10343;52.402;9.796;2023-03-04T08:44:55;101453.97;;;11.05;75.24
20368;BME280;10343;52.402;9.796;2023-03-04T08:47:23;101457.00;;;11.41;72.82
20368;BME280;10343;52.402;9.796;2023-03-04T08:49:53;101456.88;;;10.82;76.85
20368;BME280;10343;52.402;9.796;2023-03-04T08:52:21;101455.16;;;10.78;76.57
20368;BME280;10343;52.402;9.796;2023-03-04T08:54:53;101459.06;;;10.46;77.72
20368;BME280;10343;52.402;9.796;2023-03-04T08:57:21;101460.50;;;10.75;75.62
20368;BME280;10343;52.402;9.796;2023-03-04T09:00:18;101452.09;;;11.12;75.44
20368;BME280;10343;52.402;9.796;2023-03-04T09:02:48;101456.53;;;11.10;77.11
20368;BME280;10343;52.402;9.796;2023-03-04T09:05:16;101448.16;;;11.39;74.34
20368;BME280;10343;52.402;9.796;2023-03-04T09:07:44;101453.84;;;11.13;74.63
20368;BME280;10343;52.402;9.796;2023-03-04T09:10:12;101456.03;;;10.78;78.69
20368;BME280;10343;52.402;9.796;2023-03-04T09:12:40;101453.31;;;10.86;75.17
20368;BME280;10343;52.402;9.796;2023-03-04T09:15:10;101468.53;;;10.68;77.01
20368;BME280;10343;52.402;9.796;2023-03-04T09:17:38;101464.72;;;10.93;76.03
20368;BME280;10343;52.402;9.796;2023-03-04T09:20:09;101471.03;;;10.81;74.48
20368;BME280;10343;52.402;9.796;2023-03-04T09:22:37;101471.63;;;11.08;72.82
20368;BME280;10343;52.402;9.796;2023-03-04T09:25:10;101477.81;;;11.07;72.43
20368;BME280;10343;52.402;9.796;2023-03-04T09:27:40;101469.91;;;11.67;70.24
20368;BME280;10343;52.402;9.796;2023-03-04T09:30:11;101467.53;;;12.08;69.04
20368;BME280;10343;52.402;9.796;2023-03-04T09:32:39;101462.75;;;12.29;66.77
20368;BME280;10343;52.402;9.796;2023-03-04T09:35:07;101461.09;;;11.65;67.60
20368;BME280;10343;52.402;9.796;2023-03-04T09:37:36;101468.81;;;11.17;73.14
20368;BME280;10343;52.402;9.796;2023-03-04T09:40:10;101473.38;;;11.72;70.76
20368;BME280;10343;52.402;9.796;2023-03-04T09:42:47;101477.97;;;10.94;75.16
20368;BME280;10343;52.402;9.796;2023-03-04T09:45:20;101472.13;;;11.97;71.88
20368;BME280;10343;52.402;9.796;2023-03-04T09:47:50;101470.47;;;11.88;70.15
20368;BME280;10343;52.402;9.796;2023-03-04T09:50:20;101480.88;;;11.43;71.08
20368;BME280;10343;52.402;9.796;2023-03-04T09:53:00;101469.34;;;11.45;72.03
20368;BME280;10343;52.402;9.796;2023-03-04T09:55:33;101468.28;;;11.57;71.91
20368;BME280;10343;52.402;9.796;2023-03-04T09:58:08;101471.28;;;11.34;71.16
20368;BME280;10343;52.402;9.796;2023-03-04T10:00:45;101485.09;;;9.97;74.21
20368;BME280;10343;52.402;9.796;2023-03-04T10:03:17;101470.88;;;10.93;74.43
20368;BME280;10343;52.402;9.796;2023-03-04T10:05:54;101467.72;;;11.33;73.15
20368;BME280;10343;52.402;9.796;2023-03-04T10:08:33;101456.72;;;11.60;68.64
20368;BME280;10343;52.402;9.796;2023-03-04T10:11:10;101469.91;;;11.67;67.42
20368;BME280;10343;52.402;9.796;2023-03-04T10:13:47;101466.47;;;11.59;65.22
20368;BME280;10343;52.402;9.796;2023-03-04T10:16:24;101469.34;;;12.04;65.26
20368;BME280;10343;52.402;9.796;2023-03-04T10:18:56;101468.84;;;12.32;63.58
20368;BME280;10343;52.402;9.796;2023-03-04T10:21:31;101464.72;;;11.58;65.12
20368;BME280;10343;52.402;9.796;2023-03-04T10:24:00;101472.84;;;10.76;66.34
20368;BME280;10343;52.402;9.796;2023-03-04T10:26:32;101460.28;;;11.59;66.47
20368;BME280;10343;52.402;9.796;2023-03-04T10:29:05;101468.38;;;12.09;62.51
20368;BME280;10343;52.402;9.796;2023-03-04T10:31:37;101473.97;;;11.90;62.94
20368;BME280;10343;52.402;9.796;2023-03-04T10:34:09;101469.97;;;12.20;60.74
20368;BME280;10343;52.402;9.796;2023-03-04T10:36:46;101466.59;;;11.53;62.96
20368;BME280;10343;52.402;9.796;2023-03-04T10:39:19;101450.16;;;11.84;59.80
20368;BME280;10343;52.402;9.796;2023-03-04T10:41:57;101449.94;;;11.99;58.92
20368;BME280;10343;52.402;9.796;2023-03-04T10:44:33;101451.63;;;12.53;56.89
20368;BME280;10343;52.402;9.796;2023-03-04T10:47:08;101460.69;;;11.29;59.92
20368;BME280;10343;52.402;9.796;2023-03-04T10:49:49;101453.47;;;12.95;56.22
20368;BME280;10343;52.402;9.796;2023-03-04T10:52:24;101450.66;;;12.59;54.98
20368;BME280;10343;52.402;9.796;2023-03-04T10:54:54;101464.41;;;11.80;55.74
20368;BME280;10343;52.402;9.796;2023-03-04T10:57:31;101459.06;;;12.36;57.25
20368;BME280;10343;52.402;9.796;2023-03-04T11:00:01;101450.63;;;12.11;56.40
20368;BME280;10343;52.402;9.796;2023-03-04T11:02:32;101454.03;;;12.20;54.71
20368;BME280;10343;52.402;9.796;2023-03-04T11:05:17;101444.16;;;12.26;56.46
20368;BME280;10343;52.402;9.796;2023-03-04T11:07:48;101453.88;;;11.73;56.27
20368;BME280;10343;52.402;9.796;2023-03-04T11:10:30;101449.59;;;13.12;51.45
20368;BME280;10343;52.402;9.796;2023-03-04T11:13:00;101448.75;;;12.64;52.61
20368;BME280;10343;52.402;9.796;2023-03-04T11:15:30;101462.97;;;10.90;59.35
20368;BME280;10343;52.402;9.796;2023-03-04T11:18:13;101448.50;;;10.43;65.40
20368;BME280;10343;52.402;9.796;2023-03-04T11:20:44;101465.72;;;9.86;68.23
20368;BME280;10343;52.402;9.796;2023-03-04T11:23:16;101461.34;;;9.85;67.15
20368;BME280;10343;52.402;9.796;2023-03-04T11:25:49;101460.06;;;11.12;63.03
20368;BME280;10343;52.402;9.796;2023-03-04T11:28:22;101467.59;;;9.73;63.57
20368;BME280;10343;52.402;9.796;2023-03-04T11:30:58;101453.28;;;9.99;63.68
20368;BME280;10343;52.402;9.796;2023-03-04T11:33:37;101461.16;;;10.03;61.88
20368;BME280;10343;52.402;9.796;2023-03-04T11:36:20;101464.91;;;10.77;60.40
20368;BME280;10343;52.402;9.796;2023-03-04T11:38:50;101448.84;;;10.86;60.99
20368;BME280;10343;52.402;9.796;2023-03-04T11:41:22;101450.41;;;12.25;57.63
20368;BME280;10343;52.402;9.796;2023-03-04T11:43:52;101451.47;;;12.61;53.12
20368;BME280;10343;52.402;9.796;2023-03-04T11:46:32;101448.19;;;11.37;56.50
20368;BME280;10343;52.402;9.796;2023-03-04T11:49:23;101446.19;;;10.88;57.19
20368;BME280;10343;52.402;9.796;2023-03-04T11:51:59;101435.84;;;10.66;58.94
20368;BME280;10343;52.402;9.796;2023-03-04T11:54:34;101451.91;;;10.54;59.33
20368;BME280;10343;52.402;9.796;2023-03-04T11:57:20;101437.00;;;10.42;58.64
20368;BME280;10343;52.402;9.796;2023-03-04T11:59:58;101415.44;;;12.45;53.45
20368;BME280;10343;52.402;9.796;2023-03-04T12:02:44;101415.53;;;12.85;51.36
20368;BME280;10343;52.402;9.796;2023-03-04T12:05:22;101403.63;;;13.03;50.23
20368;BME280;10343;52.402;9.796;2023-03-04T12:08:07;101411.63;;;14.15;49.00
20368;BME280;10343;52.402;9.796;2023-03-04T12:10:47;101410.31;;;12.79;51.91
20368;BME280;10343;52.402;9.796;2023-03-04T12:16:47;101412.06;;;14.65;45.30
20368;BME280;10343;52.402;9.796;2023-03-04T12:19:26;101405.97;;;14.27;45.77
20368;BME280;10343;52.402;9.796;2023-03-04T12:22:17;101392.97;;;14.48;44.13
20368;BME280;10343;52.402;9.796;2023-03-04T12:25:13;101409.38;;;12.38;48.43
20368;BME280;10343;52.402;9.796;2023-03-04T12:27:55;101401.66;;;12.24;47.27
20368;BME280;10343;52.402;9.796;2023-03-04T12:30:34;101395.00;;;13.31;46.04
20368;BME280;10343;52.402;9.796;2023-03-04T12:33:13;101393.34;;;12.85;45.71
20368;BME280;10343;52.402;9.796;2023-03-04T12:35:51;101397.25;;;13.50;44.99
20368;BME280;10343;52.402;9.796;2023-03-04T12:38:54;101386.66;;;13.07;45.33
20368;BME280;10343;52.402;9.796;2023-03-04T12:41:33;101387.69;;;14.44;43.73
20368;BME280;10343;52.402;9.796;2023-03-04T12:44:17;101380.75;;;14.06;43.95
20368;BME280;10343;52.402;9.796;2023-03-04T12:47:08;101384.84;;;13.85;45.02
20368;BME280;10343;52.402;9.796;2023-03-04T12:49:46;101379.59;;;12.64;46.62
20368;BME280;10343;52.402;9.796;2023-03-04T12:52:26;101381.59;;;12.53;47.40
20368;BME280;10343;52.402;9.796;2023-03-04T12:55:01;101382.00;;;11.25;50.17
20368;BME280;10343;52.402;9.796;2023-03-04T12:57:30;101373.75;;;12.89;47.91
20368;BME280;10343;52.402;9.796;2023-03-04T13:00:08;101380.91;;;12.43;49.43
20368;BME280;10343;52.402;9.796;2023-03-04T13:02:49;101383.00;;;11.76;50.53
20368;BME280;10343;52.402;9.796;2023-03-04T13:05:35;101398.56;;;9.95;55.61
20368;BME280;10343;52.402;9.796;2023-03-04T13:08:14;101393.06;;;10.15;57.30
20368;BME280;10343;52.402;9.796;2023-03-04T13:10:49;101381.22;;;11.20;56.06
20368;BME280;10343;52.402;9.796;2023-03-04T13:13:36;101384.66;;;11.25;57.06